createdAt,value
2023-04-10T04:44:31.942Z,37.50
2023-04-10T04:47:11.608Z,28.50
2023-04-10T04:50:15.742Z,29.00
2023-04-10T04:53:04.239Z,30.60
2023-04-10T04:55:43.559Z,32.30
2023-04-10T04:58:30.843Z,33.40
2023-04-10T05:01:31.213Z,28.80
2023-04-10T05:04:25.253Z,36.30
2023-04-10T05:07:16.244Z,33.90
2023-04-10T05:10:02.888Z,42.10
2023-04-10T05:12:41.998Z,40.50
2023-04-10T05:15:29.302Z,33.20
2023-04-10T05:18:23.899Z,37.40
2023-04-10T05:21:21.578Z,37.80
2023-04-10T05:24:13.692Z,34.10
2023-04-10T05:27:12.984Z,41.80
2023-04-10T05:30:08.993Z,39.70
2023-04-10T05:33:01.095Z,39.20
2023-04-10T05:35:50.391Z,39.10
2023-04-10T05:38:43.763Z,41.80
2023-04-10T05:41:39.763Z,35.00
2023-04-10T05:44:28.193Z,43.40
2023-04-10T05:47:02.092Z,37.40
2023-04-10T05:50:02.365Z,39.00
2023-04-10T05:52:55.101Z,35.10
2023-04-10T05:55:37.034Z,40.00
2023-04-10T05:58:19.223Z,32.60
2023-04-10T06:01:24.855Z,25.30
2023-04-10T06:04:00.391Z,22.60
2023-04-10T06:06:33.814Z,19.90
2023-04-10T06:09:03.252Z,19.50
2023-04-10T06:11:31.962Z,21.80
2023-04-10T06:14:01.075Z,18.70
2023-04-10T06:16:49.889Z,22.20
2023-04-10T06:19:21.728Z,27.70
2023-04-10T06:21:49.850Z,27.60
2023-04-10T06:24:24.348Z,28.70
2023-04-10T06:26:53.902Z,25.70
2023-04-10T06:29:22.109Z,29.10
2023-04-10T06:31:52.020Z,24.80
2023-04-10T06:34:21.081Z,24.20
2023-04-10T06:37:00.646Z,22.30
2023-04-10T06:39:31.166Z,20.20
2023-04-10T06:41:59.744Z,24.20
2023-04-10T06:44:45.515Z,22.10
2023-04-10T06:47:13.775Z,22.60
2023-04-10T06:49:50.145Z,24.30
2023-04-10T06:52:18.596Z,22.50
2023-04-10T06:54:46.826Z,18.20
2023-04-10T06:57:16.086Z,21.40
2023-04-10T06:59:45.719Z,18.90
2023-04-10T07:02:14.277Z,18.70
2023-04-10T07:04:49.075Z,21.40
2023-04-10T07:07:19.596Z,17.70
2023-04-10T07:09:56.069Z,22.00
2023-04-10T07:12:31.772Z,19.20
2023-04-10T07:15:03.646Z,15.60
2023-04-10T07:17:32.430Z,17.50
2023-04-10T07:20:00.894Z,15.40
2023-04-10T07:22:31.040Z,16.40
2023-04-10T07:24:59.544Z,16.80
2023-04-10T07:27:31.088Z,16.90
2023-04-10T07:29:59.201Z,17.20
2023-04-10T07:32:27.414Z,15.20
2023-04-10T07:34:56.089Z,17.20
2023-04-10T07:37:30.291Z,12.20
2023-04-10T07:40:00.862Z,13.30
2023-04-10T07:42:29.221Z,12.50
2023-04-10T07:44:59.992Z,12.90
2023-04-10T07:47:28.463Z,15.50
2023-04-10T07:49:56.695Z,13.50
2023-04-10T07:52:25.542Z,9.70
2023-04-10T07:54:54.123Z,13.10
2023-04-10T07:57:24.663Z,12.10
2023-04-10T07:59:56.028Z,13.10
2023-04-10T08:02:29.950Z,12.20
2023-04-10T08:05:01.290Z,12.00
2023-04-10T08:07:30.633Z,15.10
2023-04-10T08:09:59.501Z,10.70
2023-04-10T08:12:37.294Z,13.90
2023-04-10T08:15:11.124Z,12.10
2023-04-10T08:17:58.738Z,15.50
2023-04-10T08:20:36.887Z,12.80
2023-04-10T08:23:19.155Z,11.10
2023-04-10T08:25:50.435Z,12.90
2023-04-10T08:28:19.667Z,10.80
2023-04-10T08:30:48.368Z,8.90
2023-04-10T08:33:17.522Z,9.40
2023-04-10T08:35:51.447Z,7.40
2023-04-10T08:38:25.032Z,11.10
2023-04-10T08:40:53.288Z,14.00
2023-04-10T08:43:22.054Z,12.60
2023-04-10T08:45:56.109Z,13.30
2023-04-10T08:48:27.927Z,11.60
2023-04-10T08:50:56.358Z,12.10
2023-04-10T08:53:24.958Z,10.20
2023-04-10T08:55:53.343Z,9.40
2023-04-10T08:58:21.934Z,9.40
2023-04-10T09:00:50.338Z,9.60
2023-04-10T09:03:21.736Z,11.40
2023-04-10T09:05:51.002Z,10.20
2023-04-10T09:08:20.765Z,9.60
2023-04-10T09:10:53.915Z,18.90
2023-04-10T09:13:35.619Z,7.60
2023-04-10T09:16:06.500Z,9.30
2023-04-10T09:18:51.326Z,11.20
2023-04-10T09:21:22.524Z,10.90
2023-04-10T09:24:00.148Z,10.10
2023-04-10T09:26:29.169Z,9.70
2023-04-10T09:29:07.553Z,10.00
2023-04-10T09:31:37.669Z,16.00
2023-04-10T09:34:29.498Z,9.00
2023-04-10T09:37:04.922Z,12.70
2023-04-10T09:40:31.732Z,11.90
2023-04-10T09:44:28.154Z,8.40
2023-04-10T09:47:31.759Z,8.60
2023-04-10T09:50:07.596Z,12.30
2023-04-10T09:52:41.773Z,11.40
2023-04-10T09:55:11.303Z,16.50
2023-04-10T09:57:51.624Z,8.50
2023-04-10T10:00:20.243Z,13.00
2023-04-10T10:02:56.800Z,10.10
2023-04-10T10:05:33.100Z,17.30
2023-04-10T10:08:02.431Z,10.60
2023-04-10T10:10:32.434Z,11.60
2023-04-10T10:13:02.322Z,13.10
2023-04-10T10:15:52.198Z,13.20
2023-04-10T10:18:23.322Z,11.10
2023-04-10T10:20:51.567Z,13.90
2023-04-10T10:23:26.580Z,12.30
2023-04-10T10:25:54.993Z,8.80
2023-04-10T10:28:23.213Z,11.40
2023-04-10T10:30:51.613Z,14.30
2023-04-10T10:33:20.224Z,9.20
2023-04-10T10:35:50.176Z,8.50
2023-04-10T10:38:18.621Z,9.30
2023-04-10T10:41:16.849Z,9.80
2023-04-10T10:43:45.122Z,11.30
2023-04-10T10:46:19.591Z,11.20
2023-04-10T10:49:00.441Z,11.60
2023-04-10T10:51:50.388Z,10.70
2023-04-10T10:54:32.254Z,10.30
2023-04-10T10:57:09.300Z,13.10
2023-04-10T10:59:43.442Z,10.90
2023-04-10T11:02:18.387Z,10.70
2023-04-10T11:04:48.387Z,12.10
2023-04-10T11:07:16.652Z,10.60
2023-04-10T11:09:53.639Z,17.80
2023-04-10T11:12:25.511Z,12.70
2023-04-10T11:15:01.388Z,12.30
2023-04-10T11:17:54.138Z,12.20
2023-04-10T11:20:27.463Z,8.30
2023-04-10T11:23:12.139Z,11.70
2023-04-10T11:25:53.747Z,10.30
2023-04-10T11:28:38.780Z,10.40
2023-04-10T11:31:22.792Z,12.80
2023-04-10T11:34:01.320Z,13.50
2023-04-10T11:36:29.519Z,12.30
2023-04-10T11:38:57.703Z,15.10
2023-04-10T11:41:30.871Z,16.60
2023-04-10T11:44:03.155Z,12.70
2023-04-10T11:46:32.277Z,12.30
2023-04-10T11:49:01.892Z,17.40
2023-04-10T11:51:31.079Z,12.50
2023-04-10T11:54:21.706Z,18.50
2023-04-10T11:57:01.585Z,13.10
2023-04-10T11:59:31.037Z,16.00
2023-04-10T12:02:09.571Z,20.10
2023-04-10T12:04:38.413Z,19.10
2023-04-10T12:07:08.126Z,20.80
2023-04-10T12:09:36.515Z,17.00
2023-04-10T12:12:06.045Z,15.80
2023-04-10T12:14:36.483Z,19.70
2023-04-10T12:17:06.373Z,17.70
2023-04-10T12:19:53.422Z,17.40
2023-04-10T12:22:22.359Z,17.90
2023-04-10T12:24:54.204Z,13.40
2023-04-10T12:27:23.670Z,17.00
2023-04-10T12:29:54.253Z,13.60
2023-04-10T12:32:22.830Z,11.50
2023-04-10T12:34:57.415Z,10.70
2023-04-10T12:37:26.160Z,12.20
2023-04-10T12:40:07.560Z,10.40
2023-04-10T12:42:40.263Z,12.30
2023-04-10T12:45:10.199Z,10.40
2023-04-10T12:47:47.137Z,8.80
2023-04-10T12:50:19.123Z,15.90
2023-04-10T12:53:09.152Z,8.30
2023-04-10T12:55:38.119Z,10.90
2023-04-10T12:58:20.269Z,9.70
2023-04-10T13:00:48.994Z,9.40
2023-04-10T13:03:17.400Z,14.10
2023-04-10T13:05:46.188Z,10.80
2023-04-10T13:08:14.727Z,8.70
2023-04-10T13:10:43.678Z,10.40
2023-04-10T13:13:14.434Z,16.90
2023-04-10T13:15:43.293Z,15.20
2023-04-10T13:18:11.728Z,15.60
2023-04-10T13:20:40.798Z,13.00
2023-04-10T13:23:10.082Z,13.90
2023-04-10T13:25:40.077Z,11.00
